Time;durP1;ratioP1;P1;durP2;ratioP2;P2;SDS_P1;SDS_P2;PMS_P1;PMS_P2;Temp;Humidity;BMP_temperature;BMP_pressure;BME280_temperature;BME280_humidity;BME280_pressure;Samples;Min_cycle;Max_cycle;Signal;HPM_P1;HPM_P2
2021/04/20 00:00:09;;;;;;;25.90;18.83;;;;;;;5.37;100.00;95816.25;1018978;29;20039;-71
2021/04/20 00:00:39;;;;;;;24.27;18.25;;;;;;;5.37;100.00;95807.66;1019640;29;20378;-71
2021/04/20 00:01:10;;;;;;;29.42;19.00;;;;;;;5.43;100.00;95812.75;1015686;29;20287;-71
2021/04/20 00:01:41;;;;;;;27.38;20.30;;;;;;;5.42;100.00;95820.75;1023044;28;20600;-71
2021/04/20 00:02:11;;;;;;;26.80;19.02;;;;;;;5.43;100.00;95814.53;1023531;28;20032;-71
2021/04/20 00:02:42;;;;;;;26.73;19.05;;;;;;;5.46;100.00;95810.69;1023314;28;20123;-70
2021/04/20 00:03:14;;;;;;;25.98;18.58;;;;;;;5.47;100.00;95814.91;1022231;28;20027;-71
2021/04/20 00:03:44;;;;;;;22.92;16.95;;;;;;;5.47;100.00;95813.09;1022752;29;20452;-71
2021/04/20 00:04:14;;;;;;;24.00;18.10;;;;;;;5.47;100.00;95807.09;1025950;28;20301;-70
2021/04/20 00:04:45;;;;;;;23.75;18.55;;;;;;;5.41;100.00;95806.19;1022605;28;20034;-70
2021/04/20 00:05:16;;;;;;;23.85;17.98;;;;;;;5.38;100.00;95802.22;1026071;28;20039;-70
2021/04/20 00:05:46;;;;;;;24.92;18.30;;;;;;;5.42;100.00;95811.16;1018577;29;20063;-71
2021/04/20 00:06:20;;;;;;;23.90;18.70;;;;;;;5.42;100.00;95808.53;1026978;28;20317;-71
2021/04/20 00:06:50;;;;;;;25.85;17.45;;;;;;;5.46;100.00;95815.91;1023184;28;20059;-71
2021/04/20 00:07:21;;;;;;;25.33;19.20;;;;;;;5.40;100.00;95796.81;1023958;28;20270;-71
2021/04/20 00:07:51;;;;;;;25.88;19.55;;;;;;;5.35;100.00;95802.66;1034101;28;20034;-70
2021/04/20 00:08:22;;;;;;;29.15;20.10;;;;;;;5.44;100.00;95816.13;1026898;28;20038;-70
2021/04/20 00:08:52;;;;;;;25.00;18.08;;;;;;;5.34;100.00;95793.28;1023151;29;20050;-71
2021/04/20 00:09:23;;;;;;;25.90;19.23;;;;;;;5.43;100.00;95804.94;1021092;29;20027;-70
2021/04/20 00:09:53;;;;;;;26.00;18.92;;;;;;;5.43;100.00;95810.16;1026320;28;20023;-71
2021/04/20 00:10:24;;;;;;;27.27;18.80;;;;;;;5.42;100.00;95807.75;1031082;28;20026;-70
2021/04/20 00:10:54;;;;;;;28.60;20.77;;;;;;;5.46;100.00;95815.91;1026496;28;20023;-70
2021/04/20 00:11:25;;;;;;;25.27;17.98;;;;;;;5.41;100.00;95799.16;1030665;28;20692;-71
2021/04/20 00:11:55;;;;;;;28.05;20.58;;;;;;;5.48;100.00;95803.47;1030992;28;20136;-71
2021/04/20 00:12:25;;;;;;;30.20;20.08;;;;;;;5.49;100.00;95808.44;1026395;28;20684;-69
2021/04/20 00:12:56;;;;;;;26.33;19.00;;;;;;;5.49;100.00;95805.81;1019917;28;20031;-70
2021/04/20 00:13:27;;;;;;;25.25;18.73;;;;;;;5.47;100.00;95813.09;1026624;28;20037;-71
2021/04/20 00:13:57;;;;;;;25.88;19.80;;;;;;;5.49;100.00;95810.25;1022433;28;20027;-71
2021/04/20 00:14:27;;;;;;;26.40;19.42;;;;;;;5.40;100.00;95792.38;1021387;28;20520;-70
2021/04/20 00:14:58;;;;;;;27.70;18.60;;;;;;;5.39;100.00;95803.78;1026065;28;20042;-71
2021/04/20 00:15:30;;;;;;;25.52;18.00;;;;;;;5.46;100.00;95800.28;1025681;28;20579;-70
2021/04/20 00:16:01;;;;;;;24.70;18.02;;;;;;;5.42;100.00;95811.16;1028258;28;20423;-70
2021/04/20 00:16:31;;;;;;;26.40;18.85;;;;;;;5.43;100.00;95810.16;1029054;28;20261;-70
2021/04/20 00:17:04;;;;;;;27.58;19.83;;;;;;;5.47;100.00;95804.50;1028818;28;20022;-70
2021/04/20 00:17:34;;;;;;;25.42;19.38;;;;;;;5.44;100.00;95803.91;1027438;28;20022;-70
2021/04/20 00:18:05;;;;;;;26.55;20.27;;;;;;;5.41;100.00;95793.97;1033661;28;20252;-71
2021/04/20 00:18:36;;;;;;;29.42;20.75;;;;;;;5.43;100.00;95802.34;1030928;28;20022;-70
2021/04/20 00:19:07;;;;;;;27.13;18.95;;;;;;;5.43;100.00;95810.16;1031015;28;20304;-71
2021/04/20 00:19:37;;;;;;;26.60;18.33;;;;;;;5.42;100.00;95800.75;1026972;28;20432;-71
2021/04/20 00:20:09;;;;;;;26.02;18.80;;;;;;;5.41;100.00;95799.16;1026645;28;20018;-71
2021/04/20 00:20:39;;;;;;;24.83;18.58;;;;;;;5.42;100.00;95803.34;1010911;29;20024;-72
2021/04/20 00:21:10;;;;;;;26.10;19.58;;;;;;;5.40;100.00;95805.41;1015034;29;20265;-71
2021/04/20 00:21:40;;;;;;;26.67;18.77;;;;;;;5.42;100.00;95800.75;1022749;29;20023;-71
2021/04/20 00:22:10;;;;;;;27.75;19.73;;;;;;;5.44;100.00;95800.53;1024904;28;20030;-71
2021/04/20 00:22:41;;;;;;;28.30;19.73;;;;;;;5.40;100.00;95795.00;1023306;28;20115;-70
2021/04/20 00:23:11;;;;;;;27.13;19.27;;;;;;;5.41;100.00;95798.38;1026480;28;20019;-70
2021/04/20 00:23:42;;;;;;;29.92;19.25;;;;;;;5.41;100.00;95804.38;1022989;28;20031;-71
2021/04/20 00:24:12;;;;;;;25.58;19.50;;;;;;;5.42;100.00;95794.75;1023197;28;20015;-71
2021/04/20 00:24:43;;;;;;;25.17;19.00;;;;;;;5.41;100.00;95796.56;1030116;28;20025;-72
2021/04/20 00:25:14;;;;;;;27.38;19.88;;;;;;;5.42;100.00;95795.53;1035639;28;20022;-72
2021/04/20 00:25:44;;;;;;;26.95;18.60;;;;;;;5.41;100.00;95798.38;1044291;28;20069;-72
2021/04/20 00:26:14;;;;;;;24.98;18.95;;;;;;;5.39;100.00;95790.78;1047831;28;20024;-71
2021/04/20 00:26:45;;;;;;;29.83;20.95;;;;;;;5.40;100.00;95792.38;1044023;28;20025;-72
2021/04/20 00:27:15;;;;;;;29.05;19.05;;;;;;;5.42;100.00;95800.75;1036216;28;20003;-72
2021/04/20 00:27:46;;;;;;;25.77;19.52;;;;;;;5.42;100.00;95789.53;1032040;28;20050;-72
2021/04/20 00:28:26;;;;;;;27.55;19.27;;;;;;;5.42;100.00;95794.75;1023481;29;20023;-72
2021/04/20 00:28:57;;;;;;;27.52;19.48;;;;;;;5.41;100.00;95799.16;1024314;29;20008;-72
2021/04/20 00:29:27;;;;;;;26.40;19.40;;;;;;;5.34;100.00;95787.31;1023874;29;20374;-72
2021/04/20 00:29:58;;;;;;;26.30;19.35;;;;;;;5.41;100.00;95793.97;1035975;28;20050;-71
2021/04/20 00:30:28;;;;;;;27.48;19.35;;;;;;;5.42;100.00;95795.53;1038981;28;20025;-71
2021/04/20 00:30:59;;;;;;;26.30;20.00;;;;;;;5.43;100.00;95796.31;1035460;28;20015;-71
2021/04/20 00:31:29;;;;;;;26.63;19.65;;;;;;;5.39;100.00;95793.38;1030321;28;20018;-71
2021/04/20 00:31:59;;;;;;;30.63;20.02;;;;;;;5.41;100.00;95793.97;1023176;29;20022;-72
2021/04/20 00:32:30;;;;;;;28.40;20.42;;;;;;;5.42;100.00;95795.53;1022777;28;20144;-71
2021/04/20 00:33:00;;;;;;;28.90;19.77;;;;;;;5.41;100.00;95790.56;1026764;28;20019;-71
2021/04/20 00:33:31;;;;;;;29.67;21.13;;;;;;;5.40;100.00;95792.38;1030888;28;20018;-71
2021/04/20 00:34:01;;;;;;;26.38;19.25;;;;;;;5.39;100.00;95790.78;1022718;29;20023;-71
2021/04/20 00:34:32;;;;;;;28.17;20.52;;;;;;;5.38;100.00;95794.41;1018570;29;20028;-71
2021/04/20 00:35:03;;;;;;;28.13;20.42;;;;;;;5.32;100.00;95784.91;1018336;29;20039;-69
2021/04/20 00:35:33;;;;;;;29.08;20.30;;;;;;;5.35;100.00;95792.25;1014482;29;20016;-71
2021/04/20 00:36:04;;;;;;;30.75;21.00;;;;;;;5.36;100.00;95790.44;1015593;28;20739;-71
2021/04/20 00:36:35;;;;;;;28.50;19.77;;;;;;;5.33;100.00;95796.91;1022271;29;20440;-71
2021/04/20 00:37:05;;;;;;;26.52;19.58;;;;;;;5.32;100.00;95799.72;1019150;28;20307;-71
2021/04/20 00:37:36;;;;;;;26.80;20.90;;;;;;;5.33;100.00;95788.31;1034703;28;20025;-71
2021/04/20 00:38:06;;;;;;;30.58;21.85;;;;;;;5.32;100.00;95794.53;1022548;28;20027;-71
2021/04/20 00:38:37;;;;;;;27.75;20.15;;;;;;;5.26;100.00;95785.81;1026854;28;20130;-71
2021/04/20 00:39:08;;;;;;;29.05;20.75;;;;;;;5.30;100.00;95797.38;1022685;28;20031;-71
2021/04/20 00:39:39;;;;;;;30.85;21.88;;;;;;;5.29;100.00;95793.16;1019776;29;20032;-70
2021/04/20 00:40:11;;;;;;;30.70;22.20;;;;;;;5.13;100.00;95770.44;1021952;28;20079;-71
2021/04/20 00:40:42;;;;;;;29.17;21.23;;;;;;;5.30;100.00;95794.78;1025625;28;20265;-71
2021/04/20 00:41:13;;;;;;;28.30;20.17;;;;;;;5.22;100.00;95784.69;1018684;29;20805;-71
2021/04/20 00:41:43;;;;;;;28.95;21.65;;;;;;;5.31;100.00;95798.94;1022796;29;20114;-71
2021/04/20 00:42:14;;;;;;;31.85;21.75;;;;;;;5.30;100.00;95799.97;1026788;28;20282;-71
2021/04/20 00:42:54;;;;;;;29.65;21.42;;;;;;;5.32;100.00;95797.13;1023189;28;20038;-71
2021/04/20 00:43:38;;;;;;;33.65;21.70;;;;;;;5.35;100.00;95799.28;1029903;28;20609;-71
2021/04/20 00:44:08;;;;;;;31.30;20.83;;;;;;;5.36;100.00;95798.25;1023554;28;20035;-70
2021/04/20 00:44:39;;;;;;;29.60;20.95;;;;;;;5.35;100.00;95796.69;1033521;28;20261;-71
2021/04/20 00:45:11;;;;;;;29.08;20.98;;;;;;;5.24;100.00;95787.88;1036238;28;20893;-71
2021/04/20 00:45:43;;;;;;;29.90;20.77;;;;;;;5.33;100.00;95796.91;1027409;28;20023;-71
2021/04/20 00:46:15;;;;;;;31.23;21.70;;;;;;;5.29;100.00;95793.16;1026243;28;20318;-71
2021/04/20 00:46:46;;;;;;;31.90;22.00;;;;;;;5.31;100.00;95795.56;1022627;28;20807;-71
2021/04/20 00:47:16;;;;;;;30.92;22.33;;;;;;;5.31;100.00;95795.56;1024278;28;20262;-71
2021/04/20 00:47:47;;;;;;;29.90;22.25;;;;;;;5.24;100.00;95787.09;1031464;28;20487;-71
2021/04/20 00:48:17;;;;;;;32.90;20.35;;;;;;;5.31;100.00;95793.75;1030280;28;20100;-70
2021/04/20 00:48:48;;;;;;;30.73;22.25;;;;;;;5.34;100.00;95789.91;1027120;28;20550;-71
2021/04/20 00:49:18;;;;;;;29.50;21.60;;;;;;;5.32;100.00;95797.91;1026760;28;20030;-71
2021/04/20 00:49:49;;;;;;;30.20;21.83;;;;;;;5.34;100.00;95782.88;1031218;28;20030;-70
2021/04/20 00:50:27;;;;;;;29.63;21.50;;;;;;;5.33;100.00;95790.91;1037405;28;20033;-71
2021/04/20 00:50:57;;;;;;;31.35;21.45;;;;;;;5.34;100.00;95792.50;1039015;28;20048;-71
2021/04/20 00:51:27;;;;;;;32.22;22.05;;;;;;;5.34;100.00;95785.50;1029941;28;20288;-70
2021/04/20 00:51:58;;;;;;;30.73;22.20;;;;;;;5.33;100.00;95788.31;1026224;28;20412;-71
2021/04/20 00:52:28;;;;;;;29.83;21.58;;;;;;;5.32;100.00;95795.31;1022981;29;20078;-71
2021/04/20 00:52:59;;;;;;;32.40;22.95;;;;;;;5.34;100.00;95788.09;1019027;28;20533;-71
2021/04/20 00:53:29;;;;;;;32.63;22.17;;;;;;;5.35;100.00;95783.66;1030140;28;20439;-70
2021/04/20 00:54:00;;;;;;;30.83;22.48;;;;;;;5.37;100.00;95787.63;1035321;28;20057;-71
2021/04/20 00:54:30;;;;;;;30.38;22.30;;;;;;;5.36;100.00;95801.66;1034771;28;20816;-70
2021/04/20 00:55:01;;;;;;;32.25;23.20;;;;;;;5.37;100.00;95785.03;1034628;28;20077;-69
2021/04/20 00:55:31;;;;;;;31.17;21.88;;;;;;;5.36;100.00;95786.03;1034298;28;20006;-71
2021/04/20 00:56:02;;;;;;;31.63;21.80;;;;;;;5.36;100.00;95788.63;1026675;28;20412;-70
2021/04/20 00:56:32;;;;;;;30.08;22.15;;;;;;;5.34;100.00;95785.50;1026988;28;20105;-70
2021/04/20 00:57:03;;;;;;;34.38;22.48;;;;;;;5.36;100.00;95791.22;1033025;28;20081;-71
2021/04/20 00:57:34;;;;;;;31.70;23.33;;;;;;;5.36;100.00;95791.22;1030671;28;20039;-71
2021/04/20 00:58:04;;;;;;;34.08;22.90;;;;;;;5.34;100.00;95780.28;1031367;28;20031;-71
2021/04/20 00:58:35;;;;;;;32.50;22.65;;;;;;;5.35;100.00;95787.06;1030445;28;20483;-70
2021/04/20 00:59:05;;;;;;;31.45;22.35;;;;;;;5.35;100.00;95783.66;1026940;28;20027;-71
2021/04/20 00:59:35;;;;;;;32.10;22.65;;;;;;;5.35;100.00;95779.25;1027046;28;20030;-71
2021/04/20 01:00:11;;;;;;;32.17;22.60;;;;;;;5.37;100.00;95784.25;1030792;28;20570;-70
2021/04/20 01:00:41;;;;;;;29.83;22.05;;;;;;;5.32;100.00;95778.91;1035744;28;20034;-71
2021/04/20 01:01:12;;;;;;;30.77;22.30;;;;;;;5.37;100.00;95790.25;1035476;28;20351;-71
2021/04/20 01:01:42;;;;;;;30.58;21.88;;;;;;;5.29;100.00;95772.34;1025813;28;20022;-71
2021/04/20 01:02:13;;;;;;;32.70;22.95;;;;;;;5.36;100.00;95775.63;1022829;28;20066;-70
2021/04/20 01:02:43;;;;;;;33.45;23.08;;;;;;;5.37;100.00;95782.44;1026837;28;20093;-70
2021/04/20 01:03:14;;;;;;;31.85;22.27;;;;;;;5.37;100.00;95784.25;1026635;28;20018;-71
2021/04/20 01:03:45;;;;;;;33.20;22.95;;;;;;;5.35;100.00;95781.06;1018953;29;20613;-71
2021/04/20 01:04:16;;;;;;;31.63;23.25;;;;;;;5.26;100.00;95762.41;1018886;29;20323;-71
2021/04/20 01:04:47;;;;;;;30.48;22.30;;;;;;;5.36;100.00;95775.63;1019538;29;20066;-71
2021/04/20 01:05:23;;;;;;;33.90;21.52;;;;;;;5.34;100.00;95769.88;1026546;28;20826;-70
2021/04/20 01:05:54;;;;;;;34.05;22.55;;;;;;;5.39;100.00;95779.59;1031535;28;20045;-70
2021/04/20 01:06:24;;;;;;;35.55;23.92;;;;;;;5.37;100.00;95774.63;1031957;28;20272;-70
2021/04/20 01:06:55;;;;;;;31.75;23.23;;;;;;;5.29;100.00;95768.97;1029927;28;20030;-69
2021/04/20 01:07:25;;;;;;;32.22;22.88;;;;;;;5.36;100.00;95777.44;1022934;28;20490;-70
2021/04/20 01:07:57;;;;;;;30.63;22.63;;;;;;;5.36;100.00;95769.63;1026859;28;20030;-71
2021/04/20 01:08:28;;;;;;;30.45;21.90;;;;;;;5.34;100.00;95777.69;1026638;28;20058;-71
2021/04/20 01:08:58;;;;;;;28.95;22.00;;;;;;;5.35;100.00;95781.06;1026950;28;20282;-71
2021/04/20 01:09:29;;;;;;;30.58;23.00;;;;;;;5.36;100.00;95780.03;1018446;29;20370;-71
2021/04/20 01:09:59;;;;;;;33.90;23.70;;;;;;;5.36;100.00;95777.44;1018768;29;20027;-70
2021/04/20 01:10:29;;;;;;;32.85;23.92;;;;;;;5.34;100.00;95775.06;1023512;28;20032;-71
2021/04/20 01:11:00;;;;;;;34.13;22.90;;;;;;;5.27;100.00;95771.81;1018553;29;20047;-70
2021/04/20 01:11:30;;;;;;;32.25;22.90;;;;;;;5.33;100.00;95778.72;1022743;28;20050;-70
2021/04/20 01:12:01;;;;;;;31.17;22.27;;;;;;;5.32;100.00;95769.31;1026955;28;20488;-70
2021/04/20 01:12:31;;;;;;;34.05;22.35;;;;;;;5.32;100.00;95778.91;1022233;29;20170;-70
2021/04/20 01:13:03;;;;;;;30.35;22.48;;;;;;;5.33;100.00;95773.50;1019200;29;20041;-70
2021/04/20 01:13:33;;;;;;;32.88;22.60;;;;;;;5.30;100.00;95771.34;1022661;29;20067;-71
2021/04/20 01:14:04;;;;;;;31.00;22.00;;;;;;;5.30;100.00;95768.75;1022543;29;20263;-70
2021/04/20 01:14:36;;;;;;;34.65;24.35;;;;;;;5.33;100.00;95775.28;1014874;29;20087;-71
2021/04/20 01:15:08;;;;;;;34.47;22.92;;;;;;;5.34;100.00;95782.88;1026303;28;20659;-71
2021/04/20 01:15:39;;;;;;;30.27;22.65;;;;;;;5.24;100.00;95761.84;1027589;28;20676;-71
2021/04/20 01:16:09;;;;;;;31.73;22.70;;;;;;;5.30;100.00;95776.56;1022362;28;20281;-71
2021/04/20 01:16:40;;;;;;;31.38;23.40;;;;;;;5.30;100.00;95773.97;1014795;29;20328;-71
2021/04/20 01:17:11;;;;;;;34.13;23.60;;;;;;;5.32;100.00;95778.91;1015105;29;20554;-71
2021/04/20 01:17:41;;;;;;;34.08;23.02;;;;;;;5.23;100.00;95765.50;1018477;29;20046;-71
2021/04/20 01:18:12;;;;;;;31.98;23.17;;;;;;;5.29;100.00;95774.97;1026663;28;20019;-70
2021/04/20 01:18:43;;;;;;;31.98;22.75;;;;;;;5.21;100.00;95767.50;1027164;28;20027;-70
2021/04/20 01:19:14;;;;;;;31.58;22.70;;;;;;;5.25;100.00;95781.63;1029298;28;20289;-70
2021/04/20 01:19:45;;;;;;;33.33;23.80;;;;;;;5.24;100.00;95781.88;1026442;28;20232;-71
2021/04/20 01:20:15;;;;;;;34.05;23.02;;;;;;;5.24;100.00;95787.09;1026954;28;20261;-71
2021/04/20 01:20:48;;;;;;;31.95;23.45;;;;;;;5.23;100.00;95782.88;1028126;28;20064;-70
2021/04/20 01:21:19;;;;;;;32.13;22.65;;;;;;;5.26;100.00;95779.81;1028332;28;20070;-71
2021/04/20 01:21:49;;;;;;;32.38;23.88;;;;;;;5.17;100.00;95772.38;1018758;29;20267;-70
2021/04/20 01:22:20;;;;;;;33.85;24.33;;;;;;;5.24;100.00;95781.88;1026710;28;20022;-70
2021/04/20 01:22:51;;;;;;;36.08;24.30;;;;;;;5.10;100.00;95750.13;1022068;29;20277;-70
2021/04/20 01:23:27;;;;;;;34.42;24.17;;;;;;;5.29;100.00;95779.38;1014926;29;20017;-71
2021/04/20 01:24:03;;;;;;;33.28;24.35;;;;;;;5.28;100.00;95788.22;1023058;29;20015;-71
2021/04/20 01:24:34;;;;;;;31.80;22.70;;;;;;;5.29;100.00;95774.97;1025743;28;20341;-70
2021/04/20 01:25:05;;;;;;;33.50;23.15;;;;;;;5.28;100.00;95789.00;1029299;28;20764;-70
2021/04/20 01:25:36;;;;;;;34.65;24.08;;;;;;;5.28;100.00;95788.22;1029814;28;20086;-70
2021/04/20 01:26:07;;;;;;;33.63;22.63;;;;;;;5.28;100.00;95793.41;1028456;28;20270;-70
2021/04/20 01:26:41;;;;;;;32.05;23.05;;;;;;;5.28;100.00;95775.97;1023967;28;20015;-71
2021/04/20 01:27:11;;;;;;;33.72;23.88;;;;;;;5.27;100.00;95787.41;1028138;28;20286;-70
2021/04/20 01:27:42;;;;;;;36.13;25.27;;;;;;;5.26;100.00;95783.22;1027233;28;20613;-71
2021/04/20 01:28:12;;;;;;;38.80;26.00;;;;;;;5.26;100.00;95785.81;1024297;28;20624;-70
2021/04/20 01:28:43;;;;;;;33.20;24.48;;;;;;;5.27;100.00;95787.41;1027548;28;20515;-70
2021/04/20 01:29:13;;;;;;;32.92;23.05;;;;;;;5.24;100.00;95784.47;1027460;28;20154;-71
2021/04/20 01:29:44;;;;;;;35.83;25.60;;;;;;;5.23;100.00;95780.28;1023337;29;20011;-70
2021/04/20 01:30:15;;;;;;;37.92;24.73;;;;;;;5.19;100.00;95775.53;1015594;29;20024;-70
2021/04/20 01:30:45;;;;;;;33.45;24.10;;;;;;;5.24;100.00;95784.47;1031841;28;20046;-71
2021/04/20 01:31:16;;;;;;;36.33;25.42;;;;;;;5.21;100.00;95783.13;1035144;28;20768;-70
2021/04/20 01:31:46;;;;;;;32.92;24.15;;;;;;;5.22;100.00;95779.50;1031580;28;20041;-70
2021/04/20 01:32:17;;;;;;;41.45;26.20;;;;;;;5.12;100.00;95769.66;1031701;28;20014;-70
2021/04/20 01:32:47;;;;;;;37.25;25.90;;;;;;;5.17;100.00;95779.41;1027089;28;20019;-71
2021/04/20 01:33:18;;;;;;;37.60;25.63;;;;;;;5.19;100.00;95779.94;1023509;28;20477;-71
2021/04/20 01:33:48;;;;;;;39.00;25.23;;;;;;;5.11;100.00;95767.28;1027813;28;20050;-70
2021/04/20 01:34:19;;;;;;;40.05;26.60;;;;;;;5.13;100.00;95775.66;1031519;28;20026;-70
2021/04/20 01:34:49;;;;;;;35.90;26.50;;;;;;;5.13;100.00;95781.66;1027299;28;20019;-70
2021/04/20 01:35:20;;;;;;;35.40;25.27;;;;;;;5.11;100.00;95777.69;1030826;28;20068;-71
2021/04/20 01:35:50;;;;;;;37.78;24.88;;;;;;;5.17;100.00;95784.59;1023376;28;20102;-70
2021/04/20 01:36:22;;;;;;;43.03;27.45;;;;;;;5.11;100.00;95772.50;1027110;28;20568;-70
2021/04/20 01:36:52;;;;;;;41.83;27.63;;;;;;;5.20;100.00;95787.53;1031480;28;20599;-70
2021/04/20 01:37:23;;;;;;;40.38;27.13;;;;;;;5.20;100.00;95786.75;1027605;28;20277;-71
2021/04/20 01:37:53;;;;;;;37.30;25.23;;;;;;;5.17;100.00;95779.41;1027907;28;20099;-71
2021/04/20 01:38:24;;;;;;;36.63;25.83;;;;;;;5.17;100.00;95789.81;1031337;28;20093;-70
2021/04/20 01:38:55;;;;;;;40.17;26.77;;;;;;;5.14;100.00;95782.44;1031533;28;20026;-71
2021/04/20 01:39:25;;;;;;;39.72;26.95;;;;;;;5.14;100.00;95782.44;1027508;28;20448;-72
2021/04/20 01:39:56;;;;;;;38.75;26.48;;;;;;;5.14;100.00;95787.66;1022823;29;20279;-69
2021/04/20 01:40:26;;;;;;;40.42;28.13;;;;;;;5.11;100.00;95780.31;1015924;29;20036;-71
2021/04/20 01:40:58;;;;;;;37.83;25.15;;;;;;;5.10;100.00;95776.13;1023363;29;20455;-71
2021/04/20 01:41:29;;;;;;;42.72;27.88;;;;;;;5.11;100.00;95782.91;1029469;28;20455;-70
2021/04/20 01:41:59;;;;;;;42.47;26.52;;;;;;;5.13;100.00;95786.03;1023738;29;20291;-71
2021/04/20 01:42:29;;;;;;;41.30;27.27;;;;;;;5.12;100.00;95787.06;1031235;28;20034;-71
2021/04/20 01:43:00;;;;;;;42.33;28.23;;;;;;;5.08;100.00;95780.75;1024749;28;20404;-68
2021/04/20 01:43:31;;;;;;;49.28;30.45;;;;;;;5.09;100.00;95790.13;1021746;29;20517;-67
2021/04/20 01:44:01;;;;;;;45.38;29.02;;;;;;;5.09;100.00;95792.72;1017250;29;20030;-70
2021/04/20 01:44:32;;;;;;;44.75;29.13;;;;;;;5.09;100.00;95787.53;1025564;28;20027;-70
2021/04/20 01:45:07;;;;;;;43.22;28.42;;;;;;;5.09;100.00;95787.53;1019012;29;20075;-68
2021/04/20 01:45:37;;;;;;;43.00;28.48;;;;;;;5.09;100.00;95792.72;1026967;28;20027;-70
2021/04/20 01:46:08;;;;;;;45.10;28.10;;;;;;;5.07;100.00;95792.97;1027008;28;20277;-69
2021/04/20 01:46:38;;;;;;;43.58;28.65;;;;;;;5.03;100.00;95783.22;1030203;28;20050;-70
2021/04/20 01:47:09;;;;;;;44.60;28.48;;;;;;;5.04;100.00;95790.03;1023608;28;20095;-71
2021/04/20 01:47:39;;;;;;;43.15;28.10;;;;;;;5.04;100.00;95787.44;1027283;28;21034;-70
2021/04/20 01:48:10;;;;;;;46.47;29.73;;;;;;;5.04;100.00;95792.63;1027034;28;20037;-69
2021/04/20 01:48:41;;;;;;;46.40;28.30;;;;;;;4.94;100.00;95780.97;1027692;28;20033;-70
2021/04/20 01:49:11;;;;;;;42.75;29.15;;;;;;;5.02;100.00;95792.03;1023285;29;20031;-70
2021/04/20 01:49:42;;;;;;;47.53;30.52;;;;;;;4.96;100.00;95786.75;1023620;28;20457;-70
2021/04/20 01:50:12;;;;;;;48.45;31.25;;;;;;;5.00;100.00;95791.47;1031646;28;20050;-70
2021/04/20 01:50:43;;;;;;;50.88;30.35;;;;;;;5.02;100.00;95795.44;1031315;28;20073;-71
2021/04/20 01:51:14;;;;;;;46.00;29.52;;;;;;;5.01;100.00;95787.88;1027253;28;20109;-70
2021/04/20 01:51:44;;;;;;;47.67;31.05;;;;;;;4.99;100.00;95792.50;1022950;28;20153;-70
2021/04/20 01:52:15;;;;;;;49.63;29.95;;;;;;;5.00;100.00;95791.47;1015379;29;20023;-70
2021/04/20 01:52:46;;;;;;;46.30;29.73;;;;;;;4.98;100.00;95799.50;1019767;29;20035;-70
2021/04/20 01:53:16;;;;;;;58.00;31.52;;;;;;;4.95;100.00;95782.53;1019025;29;20264;-70
2021/04/20 01:53:47;;;;;;;49.33;30.67;;;;;;;4.97;100.00;95792.75;1019249;29;20123;-70
2021/04/20 01:54:18;;;;;;;50.35;31.33;;;;;;;4.89;100.00;95780.06;1023604;28;20011;-70
2021/04/20 01:54:49;;;;;;;52.53;31.77;;;;;;;4.97;100.00;95793.53;1026735;28;20027;-69
2021/04/20 01:55:20;;;;;;;49.97;30.85;;;;;;;4.99;100.00;95789.91;1030494;28;20514;-71
2021/04/20 01:55:57;;;;;;;51.95;31.67;;;;;;;4.90;100.00;95782.44;1023161;29;20023;-69
2021/04/20 01:56:28;;;;;;;53.30;32.17;;;;;;;4.97;100.00;95790.13;1026605;28;20286;-68
2021/04/20 01:56:59;;;;;;;49.33;31.55;;;;;;;4.89;100.00;95780.84;1027515;28;20269;-69
2021/04/20 01:57:29;;;;;;;49.70;31.20;;;;;;;4.94;100.00;95788.78;1019482;29;20657;-70
2021/04/20 01:58:00;;;;;;;48.72;29.85;;;;;;;4.98;100.00;95786.50;1027047;28;20030;-69
2021/04/20 01:58:31;;;;;;;49.10;30.58;;;;;;;4.91;100.00;95778.81;1026235;28;20023;-70
2021/04/20 01:59:01;;;;;;;46.22;29.52;;;;;;;4.91;100.00;95789.22;1019238;29;20032;-69
2021/04/20 01:59:32;;;;;;;49.75;30.42;;;;;;;4.91;100.00;95791.81;1027460;28;20834;-69
2021/04/20 02:00:09;;;;;;;49.08;29.52;;;;;;;4.88;100.00;95791.47;1025184;28;20102;-69
2021/04/20 02:00:40;;;;;;;47.55;30.73;;;;;;;4.88;100.00;95794.88;1019320;29;20551;-69
2021/04/20 02:01:15;;;;;;;51.65;31.13;;;;;;;4.81;100.00;95770.78;1015668;29;20264;-69
2021/04/20 02:01:45;;;;;;;51.38;31.58;;;;;;;4.87;100.00;95788.09;1024882;28;20020;-70
2021/04/20 02:02:16;;;;;;;49.28;31.02;;;;;;;4.91;100.00;95789.22;1027212;28;20266;-70
2021/04/20 02:02:47;;;;;;;49.88;32.92;;;;;;;4.90;100.00;95786.84;1020203;29;20023;-70
2021/04/20 02:03:17;;;;;;;49.88;31.70;;;;;;;4.90;100.00;95789.47;1033126;28;20044;-69
2021/04/20 02:03:49;;;;;;;47.90;29.48;;;;;;;4.90;100.00;95792.84;1021136;29;20119;-69
2021/04/20 02:04:19;;;;;;;48.92;31.15;;;;;;;4.88;100.00;95787.06;1024542;28;20130;-70
2021/04/20 02:04:50;;;;;;;51.95;32.53;;;;;;;4.87;100.00;95789.91;1028584;28;20274;-70
2021/04/20 02:05:20;;;;;;;49.28;31.85;;;;;;;4.88;100.00;95789.66;1022572;29;20939;-68
2021/04/20 02:05:51;;;;;;;46.38;30.42;;;;;;;4.91;100.00;95789.22;1026955;28;20082;-70
2021/04/20 02:06:24;;;;;;;50.40;30.67;;;;;;;4.88;100.00;95794.09;1019154;29;20012;-69
2021/04/20 02:06:55;;;;;;;53.90;33.40;;;;;;;4.86;100.00;95786.50;1024655;28;20030;-70
2021/04/20 02:07:25;;;;;;;48.95;31.33;;;;;;;4.79;100.00;95785.03;1027979;28;20270;-70
2021/04/20 02:07:56;;;;;;;48.60;32.30;;;;;;;4.87;100.00;95792.50;1019517;29;20170;-70
2021/04/20 02:08:27;;;;;;;47.95;30.75;;;;;;;4.88;100.00;95788.88;1030906;28;20079;-70
2021/04/20 02:08:57;;;;;;;57.10;34.05;;;;;;;4.88;100.00;95784.47;1027417;28;20034;-70
2021/04/20 02:09:28;;;;;;;56.90;33.53;;;;;;;4.88;100.00;95784.47;1027354;28;20022;-70
2021/04/20 02:09:59;;;;;;;53.40;32.83;;;;;;;4.85;100.00;95784.91;1019363;29;20027;-71
2021/04/20 02:10:30;;;;;;;53.38;32.67;;;;;;;4.86;100.00;95786.50;1027104;28;20027;-70
2021/04/20 02:11:04;;;;;;;47.53;31.73;;;;;;;4.92;100.00;95790.78;1024612;28;20263;-70
2021/04/20 02:11:34;;;;;;;50.75;32.08;;;;;;;4.90;100.00;95782.44;1023204;29;20031;-70
2021/04/20 02:12:05;;;;;;;54.65;32.92;;;;;;;4.88;100.00;95779.28;1030085;28;20281;-70
2021/04/20 02:12:37;;;;;;;47.30;28.73;;;;;;;4.96;100.00;95781.56;1030712;28;20125;-70
2021/04/20 02:13:07;;;;;;;53.78;33.72;;;;;;;4.98;100.00;95783.91;1027609;28;20030;-70
2021/04/20 02:13:38;;;;;;;50.65;32.40;;;;;;;4.98;100.00;95783.91;1027083;28;20684;-70
2021/04/20 02:14:08;;;;;;;52.65;33.33;;;;;;;4.97;100.00;95788.31;1026578;28;20081;-70
2021/04/20 02:14:39;;;;;;;52.25;32.25;;;;;;;4.99;100.00;95787.28;1023497;28;20019;-69
2021/04/20 02:15:12;;;;;;;49.35;30.90;;;;;;;4.97;100.00;95783.13;1018727;28;20031;-70
2021/04/20 02:15:42;;;;;;;47.10;30.95;;;;;;;4.99;100.00;95792.50;1030612;28;20026;-70
2021/04/20 02:16:13;;;;;;;46.15;29.30;;;;;;;4.94;100.00;95783.56;1023019;28;20378;-69
2021/04/20 02:16:44;;;;;;;46.30;30.08;;;;;;;4.96;100.00;95783.34;1023025;29;20023;-70
2021/04/20 02:17:14;;;;;;;46.55;30.60;;;;;;;5.01;100.00;95787.88;1015595;29;20028;-70
2021/04/20 02:17:45;;;;;;;46.90;29.88;;;;;;;5.01;100.00;95787.88;1015091;29;20020;-69
2021/04/20 02:18:15;;;;;;;47.03;31.05;;;;;;;4.97;100.00;95785.72;1023166;29;20060;-70
2021/04/20 02:18:48;;;;;;;52.45;33.13;;;;;;;5.02;100.00;95790.22;1023388;28;20109;-70
2021/04/20 02:19:18;;;;;;;51.00;30.85;;;;;;;5.01;100.00;95790.47;1015927;29;20096;-70
2021/04/20 02:19:49;;;;;;;50.53;32.45;;;;;;;4.93;100.00;95779.41;1023261;29;20330;-69
2021/04/20 02:20:20;;;;;;;54.28;32.08;;;;;;;5.01;100.00;95790.47;1023423;28;20527;-70
2021/04/20 02:20:51;;;;;;;44.67;30.92;;;;;;;4.95;100.00;95782.53;1015264;29;20619;-70
2021/04/20 02:21:21;;;;;;;45.08;29.38;;;;;;;5.00;100.00;95789.69;1026581;28;20019;-69
2021/04/20 02:21:52;;;;;;;57.63;35.15;;;;;;;5.02;100.00;95789.44;1023150;29;20449;-70
2021/04/20 02:22:23;;;;;;;50.42;31.40;;;;;;;5.02;100.00;95789.44;1022582;28;20026;-70